Time;durP1;ratioP1;P1;durP2;ratioP2;P2;SDS_P1;SDS_P2;PMS_P1;PMS_P2;Temp;Humidity;BMP_temperature;BMP_pressure;BME280_temperature;BME280_humidity;BME280_pressure;Samples;Min_cycle;Max_cycle;Signal;HPM_P1;HPM_P2
2022/05/29 00:02:08;;;;;;;;;11.00;11.00;;;;;14.43;100.00;100831.38;3722516;37;20893;-61
2022/05/29 00:04:36;;;;;;;;;9.75;9.75;;;;;14.40;100.00;100825.44;3723532;38;20729;-62
2022/05/29 00:07:04;;;;;;;;;11.00;10.50;;;;;14.35;100.00;100836.94;3723502;38;20635;-61
2022/05/29 00:09:43;;;;;;;;;10.75;10.25;;;;;14.32;100.00;100831.91;3723455;38;20526;-62
2022/05/29 00:12:12;;;;;;;;;12.00;11.00;;;;;14.28;100.00;100835.22;3723692;38;20695;-62
2022/05/29 00:14:41;;;;;;;;;10.00;10.00;;;;;14.25;100.00;100841.91;3723705;37;20677;-62
2022/05/29 00:17:09;;;;;;;;;11.75;11.00;;;;;14.14;100.00;100846.03;3723055;37;20687;-63
2022/05/29 00:19:36;;;;;;;;;10.25;9.75;;;;;14.10;100.00;100843.91;3723694;38;20789;-62
2022/05/29 00:22:04;;;;;;;;;11.00;9.50;;;;;14.12;100.00;100839.09;3722895;38;20590;-62
2022/05/29 00:24:32;;;;;;;;;12.00;11.25;;;;;14.12;100.00;100834.50;3723203;38;20611;-63
2022/05/29 00:26:59;;;;;;;;;13.00;13.00;;;;;14.06;100.00;100834.47;3723660;37;20691;-62
2022/05/29 00:29:27;;;;;;;;;10.50;10.50;;;;;13.93;100.00;100842.56;3722875;37;20723;-61
2022/05/29 00:31:55;;;;;;;;;10.25;10.25;;;;;13.95;100.00;100838.59;3723798;38;20731;-64
2022/05/29 00:34:22;;;;;;;;;10.00;9.50;;;;;13.96;100.00;100839.44;3723843;37;20743;-64
2022/05/29 00:36:50;;;;;;;;;12.25;12.25;;;;;13.91;100.00;100835.44;3723940;37;20588;-63
2022/05/29 00:39:17;;;;;;;;;11.25;11.25;;;;;13.89;100.00;100844.84;3723519;38;20705;-63
2022/05/29 00:41:46;;;;;;;;;13.25;13.00;;;;;13.85;100.00;100854.44;3723657;37;20715;-62
2022/05/29 00:44:30;;;;;;;;;12.50;12.50;;;;;13.82;100.00;100844.78;3723650;37;20779;-63
2022/05/29 00:47:15;;;;;;;;;11.50;11.25;;;;;13.79;100.00;100856.06;3723825;37;20690;-62
2022/05/29 00:49:45;;;;;;;;;13.00;12.25;;;;;13.73;100.00;100848.69;3723561;38;20679;-62
2022/05/29 00:52:21;;;;;;;;;10.50;10.50;;;;;13.53;100.00;100853.09;3722784;38;20604;-62
2022/05/29 00:55:04;;;;;;;;;9.75;9.00;;;;;13.45;100.00;100853.28;3723616;37;20635;-61
2022/05/29 00:57:40;;;;;;;;;13.25;11.25;;;;;13.40;100.00;100844.84;3722910;37;20605;-62
2022/05/29 01:00:17;;;;;;;;;10.00;9.75;;;;;13.30;100.00;100853.34;3723929;37;20643;-61
2022/05/29 01:02:45;;;;;;;;;9.25;8.75;;;;;13.14;100.00;100848.13;3723640;37;20670;-61
2022/05/29 01:05:16;;;;;;;;;8.25;7.50;;;;;13.12;100.00;100852.91;3723491;38;20707;-62
2022/05/29 01:07:48;;;;;;;;;8.00;7.50;;;;;13.08;100.00;100857.03;3723750;37;20631;-62
2022/05/29 01:10:16;;;;;;;;;8.25;7.25;;;;;13.06;100.00;100856.38;3723042;37;20534;-63
2022/05/29 01:13:14;;;;;;;;;9.75;9.00;;;;;12.96;100.00;100856.72;3723634;38;20656;-62
2022/05/29 01:16:50;;;;;;;;;9.25;9.25;;;;;12.93;100.00;100855.22;3723848;37;20649;-62
2022/05/29 01:20:01;;;;;;;;;8.25;8.25;;;;;12.92;100.00;100855.41;3723626;38;20572;-61
2022/05/29 01:23:19;;;;;;;;;4.75;4.75;;;;;12.79;100.00;100850.69;3723621;37;20595;-61
2022/05/29 01:26:58;;;;;;;;;10.75;7.50;;;;;12.76;100.00;100855.66;3723096;38;20598;-63
2022/05/29 01:29:39;;;;;;;;;6.75;6.75;;;;;12.80;100.00;100846.09;3723610;37;20553;-62
2022/05/29 01:32:18;;;;;;;;;6.00;6.00;;;;;12.78;100.00;100851.72;3723765;38;20599;-61
2022/05/29 01:34:52;;;;;;;;;7.00;6.00;;;;;12.71;100.00;100856.22;3723141;37;20580;-63
2022/05/29 01:37:34;;;;;;;;;7.00;7.00;;;;;12.70;100.00;100857.25;3723098;38;20509;-61
2022/05/29 01:40:55;;;;;;;;;4.00;4.00;;;;;12.53;100.00;100850.34;3723183;37;20592;-62
2022/05/29 01:43:41;;;;;;;;;5.00;5.00;;;;;12.42;100.00;100850.84;3723784;37;20581;-61
2022/05/29 01:46:16;;;;;;;;;6.00;5.00;;;;;12.31;100.00;100848.59;3723736;37;20773;-60
2022/05/29 01:48:58;;;;;;;;;6.00;6.00;;;;;12.28;100.00;100852.53;3722986;38;20585;-62
2022/05/29 01:51:54;;;;;;;;;4.25;4.25;;;;;12.21;100.00;100840.75;3723698;38;20700;-61
2022/05/29 01:54:49;;;;;;;;;5.00;5.00;;;;;12.14;100.00;100846.06;3723778;37;20552;-62
2022/05/29 01:57:28;;;;;;;;;6.00;5.25;;;;;12.13;100.00;100843.53;3723715;38;20567;-62
2022/05/29 02:00:29;;;;;;;;;5.00;5.00;;;;;12.14;100.00;100840.63;3723128;37;20440;-60
2022/05/29 02:03:09;;;;;;;;;7.00;7.00;;;;;12.11;100.00;100829.31;3723767;38;20498;-62
2022/05/29 02:05:49;;;;;;;;;5.50;5.50;;;;;12.13;100.00;100838.94;3723723;38;20453;-62
2022/05/29 02:08:32;;;;;;;;;5.25;5.25;;;;;12.09;100.00;100855.78;3723743;37;20554;-62
2022/05/29 02:11:11;;;;;;;;;5.00;5.00;;;;;12.02;100.00;100847.56;3723732;37;20612;-61
2022/05/29 02:13:55;;;;;;;;;5.00;5.00;;;;;12.04;100.00;100853.63;3722980;38;20416;-61
2022/05/29 02:16:42;;;;;;;;;4.00;4.00;;;;;12.05;100.00;100849.06;3723589;37;20445;-62
2022/05/29 02:19:33;;;;;;;;;6.00;6.00;;;;;12.07;100.00;100865.97;3723167;37;20501;-60
2022/05/29 02:22:09;;;;;;;;;5.25;5.00;;;;;11.92;100.00;100858.69;3723151;37;20564;-61
2022/05/29 02:24:43;;;;;;;;;4.25;4.25;;;;;12.00;100.00;100857.75;3723092;38;20777;-61
2022/05/29 02:27:33;;;;;;;;;5.50;5.50;;;;;11.99;100.00;100863.34;3723826;38;20511;-62
2022/05/29 02:30:03;;;;;;;;;6.00;6.00;;;;;12.05;100.00;100863.47;3723892;37;20419;-62
2022/05/29 02:33:07;;;;;;;;;6.50;6.50;;;;;12.12;100.00;100869.81;3723839;37;20549;-62
2022/05/29 02:36:23;;;;;;;;;6.75;5.50;;;;;12.03;100.00;100868.22;3724021;37;20534;-61
2022/05/29 02:39:12;;;;;;;;;5.00;5.00;;;;;11.95;100.00;100854.78;3723864;37;20525;-61
2022/05/29 02:42:22;;;;;;;;;6.00;5.00;;;;;11.91;100.00;100854.31;3723906;37;20526;-61
2022/05/29 02:45:23;;;;;;;;;5.00;5.00;;;;;11.93;100.00;100857.66;3723659;38;20485;-61
2022/05/29 02:48:03;;;;;;;;;5.75;4.50;;;;;11.93;100.00;100867.69;3723862;37;20376;-61
2022/05/29 02:50:43;;;;;;;;;4.00;4.00;;;;;11.92;100.00;100855.16;3723890;38;20514;-61
2022/05/29 02:53:14;;;;;;;;;4.00;4.00;;;;;11.91;100.00;100859.72;3723730;38;20457;-61
2022/05/29 02:55:44;;;;;;;;;4.75;4.00;;;;;11.95;100.00;100871.06;3723106;37;20527;-62
2022/05/29 02:58:19;;;;;;;;;5.00;5.00;;;;;11.96;100.00;100867.28;3723723;37;20488;-62
2022/05/29 03:01:16;;;;;;;;;4.50;3.75;;;;;11.94;100.00;100850.37;3723939;37;20441;-63
2022/05/29 03:04:26;;;;;;;;;5.00;4.25;;;;;12.05;100.00;100858.03;3723868;37;20496;-61
2022/05/29 03:07:36;;;;;;;;;4.75;4.75;;;;;12.02;100.00;100876.53;3723645;38;20466;-61
2022/05/29 03:10:29;;;;;;;;;4.75;4.75;;;;;11.94;100.00;100872.06;3723050;37;20571;-61
2022/05/29 03:13:33;;;;;;;;;5.50;5.50;;;;;11.93;100.00;100873.94;3723717;37;20462;-62
2022/05/29 03:16:17;;;;;;;;;6.00;6.00;;;;;11.84;100.00;100876.91;3723772;38;20425;-61
2022/05/29 03:19:13;;;;;;;;;4.00;4.00;;;;;11.95;100.00;100872.91;3723839;37;20429;-61
2022/05/29 03:22:32;;;;;;;;;3.50;3.25;;;;;11.97;100.00;100882.53;3724067;38;20345;-62
2022/05/29 03:25:35;;;;;;;;;4.00;4.00;;;;;11.99;100.00;100875.06;3723851;38;20467;-62
2022/05/29 03:28:11;;;;;;;;;4.00;4.00;;;;;11.89;100.00;100874.50;3723799;38;20359;-62
2022/05/29 03:30:40;;;;;;;;;4.00;4.00;;;;;11.93;100.00;100875.81;3723771;38;20507;-62
2022/05/29 03:33:12;;;;;;;;;5.00;5.00;;;;;11.93;100.00;100876.66;3723132;38;20466;-62
2022/05/29 03:36:03;;;;;;;;;3.75;3.75;;;;;11.92;100.00;100874.13;3723692;37;21399;-62
2022/05/29 03:38:31;;;;;;;;;4.25;4.00;;;;;11.94;100.00;100874.78;3723900;38;21386;-62
2022/05/29 03:40:58;;;;;;;;;3.75;3.75;;;;;12.02;100.00;100877.37;3723807;38;20624;-62
2022/05/29 03:43:26;;;;;;;;;4.75;4.75;;;;;12.07;100.00;100883.09;3723858;38;21422;-62
2022/05/29 03:45:53;;;;;;;;;4.50;4.50;;;;;12.08;100.00;100870.38;3723733;37;21297;-63
2022/05/29 03:48:20;;;;;;;;;5.00;5.00;;;;;12.04;100.00;100869.06;3723567;38;21384;-61
2022/05/29 03:50:48;;;;;;;;;2.25;2.25;;;;;11.99;100.00;100880.47;3723747;38;21334;-60
2022/05/29 03:53:15;;;;;;;;;3.25;3.25;;;;;12.07;100.00;100883.09;3723826;38;21298;-61
2022/05/29 03:55:42;;;;;;;;;4.00;4.00;;;;;12.18;100.00;100885.38;3723895;38;21399;-61
2022/05/29 03:58:10;;;;;;;;;4.25;4.25;;;;;12.28;100.00;100876.94;3723225;37;21323;-61
2022/05/29 04:00:37;;;;;;;;;4.00;4.00;;;;;12.20;100.00;100872.47;3722943;37;21310;-62
2022/05/29 04:03:04;;;;;;;;;5.00;4.25;;;;;12.27;100.00;100867.13;3722892;38;21428;-61
2022/05/29 04:05:32;;;;;;;;;5.50;5.25;;;;;12.25;100.00;100878.16;3723881;38;21403;-61
2022/05/29 04:13:39;;;;;;;;;1.00;1.00;;;;;12.53;100.00;100888.34;3723894;38;21442;-59
2022/05/29 04:16:07;;;;;;;;;3.00;3.00;;;;;12.51;100.00;100885.81;3723821;37;21248;-59
2022/05/29 04:18:35;;;;;;;;;5.00;5.00;;;;;12.54;100.00;100895.47;3723660;37;21289;-60
2022/05/29 04:21:07;;;;;;;;;5.25;5.25;;;;;12.59;100.00;100896.59;3722925;37;21392;-59
2022/05/29 04:23:35;;;;;;;;;4.25;4.25;;;;;12.76;100.00;100899.94;3723635;38;21259;-59
2022/05/29 04:26:03;;;;;;;;;3.25;3.25;;;;;12.70;100.00;100895.25;3722954;37;21323;-59
2022/05/29 04:28:31;;;;;;;;;4.75;4.50;;;;;12.84;100.00;100899.00;3723598;37;21346;-61
2022/05/29 04:30:58;;;;;;;;;3.25;3.25;;;;;12.90;100.00;100903.66;3723764;38;21216;-59
2022/05/29 04:33:26;;;;;;;;;4.75;4.75;;;;;13.03;100.00;100914.66;3723785;38;21353;-60
2022/05/29 04:35:54;;;;;;;;;4.25;3.25;;;;;13.15;100.00;100924.00;3723919;37;21371;-60
2022/05/29 04:38:23;;;;;;;;;4.00;4.00;;;;;13.06;100.00;100917.00;3723575;38;21360;-61
2022/05/29 04:40:51;;;;;;;;;3.00;3.00;;;;;13.01;100.00;100924.03;3723487;37;21355;-61
2022/05/29 04:43:19;;;;;;;;;3.50;3.50;;;;;13.05;100.00;100928.91;3723763;38;21357;-61
2022/05/29 04:45:51;;;;;;;;;4.25;3.50;;;;;13.06;100.00;100930.59;3723748;37;21335;-62
2022/05/29 04:48:19;;;;;;;;;3.25;3.25;;;;;13.06;100.00;100929.75;3723721;37;21350;-63
2022/05/29 04:50:46;;;;;;;;;3.75;3.75;;;;;12.94;100.00;100934.84;3723640;37;21508;-65
2022/05/29 04:53:14;;;;;;;;;3.75;3.75;;;;;12.99;100.00;100940.56;3723058;37;21222;-66
2022/05/29 04:55:42;;;;;;;;;3.75;3.75;;;;;13.01;100.00;100943.91;3723604;38;21233;-64
2022/05/29 04:58:09;;;;;;;;;5.50;4.25;;;;;13.13;100.00;100945.09;3723744;37;21223;-63
2022/05/29 05:00:36;;;;;;;;;3.25;3.25;;;;;13.17;100.00;100942.88;3723062;37;21182;-61
2022/05/29 05:03:04;;;;;;;;;5.00;4.25;;;;;13.05;100.00;100947.09;3723843;38;21349;-60
2022/05/29 05:05:31;;;;;;;;;4.25;4.25;;;;;13.16;100.00;100949.34;3723625;37;21201;-69
2022/05/29 05:07:59;;;;;;;;;4.00;4.00;;;;;13.26;100.00;100955.31;3723015;38;21357;-65
2022/05/29 05:10:26;;;;;;;;;4.25;3.25;;;;;13.25;100.00;100964.50;3723718;37;21056;-63
2022/05/29 05:12:54;;;;;;;;;3.25;3.25;;;;;13.31;100.00;100971.91;3723507;38;21305;-63
2022/05/29 05:15:22;;;;;;;;;3.00;3.00;;;;;13.34;100.00;100973.41;3722866;38;21179;-62
2022/05/29 05:17:49;;;;;;;;;3.00;3.00;;;;;13.28;100.00;100961.41;3723736;38;21191;-65
2022/05/29 05:20:17;;;;;;;;;3.50;3.50;;;;;13.18;100.00;100967.16;3723501;37;21173;-67
2022/05/29 05:22:45;;;;;;;;;2.00;2.00;;;;;13.15;100.00;100972.09;3723777;38;21279;-64
2022/05/29 05:25:14;;;;;;;;;2.75;2.75;;;;;13.21;100.00;100976.81;3724009;38;21467;-63
2022/05/29 05:27:41;;;;;;;;;4.00;4.00;;;;;13.29;100.00;100973.97;3723884;37;21276;-64
2022/05/29 05:30:10;;;;;;;;;3.00;3.00;;;;;13.32;100.00;100972.75;3723876;37;21220;-64
2022/05/29 05:32:38;;;;;;;;;1.75;1.75;;;;;13.36;100.00;100974.91;3723977;38;21304;-66
2022/05/29 05:35:07;;;;;;;;;3.00;3.00;;;;;13.42;100.00;100976.00;3723278;37;21145;-65
2022/05/29 05:37:36;;;;;;;;;3.00;3.00;;;;;13.34;100.00;100968.81;3723141;37;21175;-66
2022/05/29 05:40:07;;;;;;;;;3.50;3.50;;;;;13.34;100.00;100962.53;3723731;37;21267;-66
2022/05/29 05:42:34;;;;;;;;;4.25;4.25;;;;;13.45;100.00;100946.56;3722925;38;21290;-67
2022/05/29 05:45:02;;;;;;;;;3.25;3.25;;;;;13.65;100.00;100954.06;3724885;38;21302;-66
2022/05/29 05:47:34;;;;;;;;;4.25;4.25;;;;;13.78;100.00;100952.31;3733518;37;21203;-66
2022/05/29 05:50:09;;;;;;;;;5.25;4.25;;;;;13.78;100.00;100962.34;3723716;37;21144;-65
2022/05/29 05:52:38;;;;;;;;;3.75;3.75;;;;;13.81;100.00;100959.25;3723289;38;21223;-64
2022/05/29 05:55:08;;;;;;;;;6.25;5.25;;;;;13.79;100.00;100950.44;3723986;37;21223;-65
2022/05/29 05:57:35;;;;;;;;;3.25;2.25;;;;;13.90;100.00;100960.78;3723897;38;21230;-64
2022/05/29 06:00:08;;;;;;;;;3.50;3.50;;;;;14.19;100.00;100957.88;3723948;37;21354;-65
2022/05/29 06:02:36;;;;;;;;;2.25;2.25;;;;;14.31;100.00;100965.50;3724111;37;21242;-64
2022/05/29 06:05:04;;;;;;;;;3.25;2.75;;;;;14.32;100.00;100972.66;3724019;38;21183;-66
2022/05/29 06:07:31;;;;;;;;;1.75;1.75;;;;;14.19;100.00;100982.37;3723169;38;21280;-66
2022/05/29 06:09:59;;;;;;;;;3.00;2.00;;;;;14.43;100.00;100972.97;3723921;37;21200;-65
2022/05/29 06:12:26;;;;;;;;;2.00;1.25;;;;;14.65;100.00;100967.44;3723873;37;21343;-67
2022/05/29 06:14:54;;;;;;;;;3.00;3.00;;;;;14.78;100.00;100972.97;3723929;37;21177;-65
2022/05/29 06:17:21;;;;;;;;;3.00;3.00;;;;;14.68;100.00;100981.50;3724008;37;21312;-65
2022/05/29 06:19:49;;;;;;;;;4.00;4.00;;;;;14.68;100.00;100981.50;3723614;38;21223;-65
2022/05/29 06:22:16;;;;;;;;;3.50;3.00;;;;;14.83;100.00;100970.47;3723469;37;21509;-66
2022/05/29 06:24:44;;;;;;;;;3.50;3.50;;;;;15.08;100.00;100970.78;3723959;38;21337;-65
2022/05/29 06:27:11;;;;;;;;;5.00;5.00;;;;;15.20;100.00;100970.00;3723974;38;21291;-66
2022/05/29 06:29:39;;;;;;;;;3.75;3.50;;;;;15.42;100.00;100967.16;3723278;37;21111;-65
2022/05/29 06:32:09;;;;;;;;;8.00;7.00;;;;;15.49;100.00;100971.59;3723926;37;21283;-65
2022/05/29 06:34:38;;;;;;;;;4.75;4.00;;;;;15.72;100.00;100970.38;3723095;37;21172;-63
2022/05/29 06:37:07;;;;;;;;;13.75;13.75;;;;;15.61;100.00;100973.72;3724004;38;21199;-64
2022/05/29 06:39:36;;;;;;;;;5.00;5.00;;;;;15.52;100.00;100982.09;3723385;38;21411;-63
2022/05/29 06:42:05;;;;;;;;;3.75;3.75;;;;;15.64;100.00;100967.84;3724013;37;21360;-65
2022/05/29 06:44:37;;;;;;;;;2.25;2.00;;;;;15.89;100.00;100967.06;3723143;38;21270;-65
2022/05/29 06:47:09;;;;;;;;;3.75;3.75;;;;;16.01;100.00;100961.00;3723808;37;21292;-66
2022/05/29 06:49:38;;;;;;;;;4.00;4.00;;;;;16.16;100.00;100962.44;3723245;37;21251;-63
2022/05/29 06:52:10;;;;;;;;;3.00;3.00;;;;;16.19;100.00;100959.28;3723731;37;21272;-64
2022/05/29 06:54:38;;;;;;;;;3.00;2.50;;;;;16.52;100.00;100967.47;3723955;38;21081;-63
2022/05/29 06:57:07;;;;;;;;;3.50;3.50;;;;;16.14;100.00;100959.06;3723266;37;21131;-65
2022/05/29 07:08:03;;;;;;;;;4.25;4.25;;;;;16.68;100.00;100944.31;3723859;37;21154;-63
2022/05/29 07:10:33;;;;;;;;;2.25;2.25;;;;;16.99;100.00;100948.22;3724060;37;21204;-64
2022/05/29 07:13:03;;;;;;;;;3.00;3.00;;;;;17.33;100.00;100957.94;3724203;38;21189;-65
2022/05/29 07:15:42;;;;;;;;;3.50;3.50;;;;;17.44;100.00;100949.88;3723409;37;21206;-63
2022/05/29 07:18:10;;;;;;;;;4.00;4.00;;;;;17.51;100.00;100955.31;3723152;38;21322;-64
2022/05/29 07:20:37;;;;;;;;;5.00;5.00;;;;;17.33;100.00;100957.94;3723330;37;21237;-65
2022/05/29 07:23:06;;;;;;;;;3.75;3.75;;;;;17.49;100.00;100962.91;3728616;38;21113;-65
2022/05/29 07:25:33;;;;;;;;;4.25;4.25;;;;;17.33;100.00;100955.22;3724247;38;21153;-66
2022/05/29 07:28:01;;;;;;;;;4.00;4.00;;;;;17.41;100.00;100963.16;3723726;37;21104;-65
2022/05/29 07:30:28;;;;;;;;;3.75;3.75;;;;;17.92;100.00;100968.53;3723886;37;21118;-64
2022/05/29 07:32:58;;;;;;;;;2.00;1.75;;;;;18.28;100.00;100966.97;3723905;38;21104;-64
2022/05/29 07:35:25;;;;;;;;;5.25;5.25;;;;;18.61;100.00;100963.97;3723840;38;21364;-63
2022/05/29 07:37:53;;;;;;;;;5.25;4.75;;;;;18.84;100.00;100956.72;3722717;37;21376;-62
2022/05/29 07:40:20;;;;;;;;;4.00;4.00;;;;;18.58;100.00;100948.78;3723549;38;21090;-64
2022/05/29 07:45:33;;;;;;;;;4.25;4.25;;;;;17.71;100.00;100939.63;3723869;38;21103;-64
2022/05/29 07:48:01;;;;;;;;;3.75;3.75;;;;;17.64;100.00;100929.78;3723752;38;21203;-64
2022/05/29 07:50:28;;;;;;;;;4.00;4.00;;;;;17.74;100.00;100935.59;3723818;38;21083;-63
2022/05/29 07:52:55;;;;;;;;;3.50;3.50;;;;;17.33;100.00;100933.31;3723894;37;21183;-64
2022/05/29 07:55:23;;;;;;;;;4.00;4.00;;;;;16.91;100.00;100943.84;3723865;37;21388;-65
2022/05/29 07:57:50;;;;;;;;;4.00;4.00;;;;;16.87;100.00;100931.66;3723078;38;21071;-64
2022/05/29 08:00:20;;;;;;;;;2.75;2.75;;;;;17.16;100.00;100935.72;3723856;37;21195;-64
2022/05/29 08:02:48;;;;;;;;;5.00;5.00;;;;;17.32;100.00;100935.22;3723746;37;21108;-64
2022/05/29 08:05:17;;;;;;;;;3.00;3.00;;;;;17.37;100.00;100935.41;3723049;38;21306;-64
2022/05/29 08:07:47;;;;;;;;;5.75;5.00;;;;;17.55;100.00;100926.47;3723381;37;21147;-65
2022/05/29 08:10:17;;;;;;;;;4.00;4.00;;;;;17.16;100.00;100924.78;3724120;37;21167;-63
2022/05/29 08:12:44;;;;;;;;;5.75;3.00;;;;;17.40;100.00;100921.28;3723648;38;21359;-66
2022/05/29 08:15:12;;;;;;;;;4.00;3.00;;;;;17.51;100.00;100914.28;3723687;37;21059;-65
2022/05/29 08:17:40;;;;;;;;;5.00;5.00;;;;;17.62;100.00;100904.53;3723747;37;21091;-66
2022/05/29 08:20:12;;;;;;;;;3.00;3.00;;;;;17.53;100.00;100910.25;3724180;38;21077;-63
2022/05/29 08:22:39;;;;;;;;;4.00;4.00;;;;;17.56;100.00;100910.88;3724210;37;21032;-62
2022/05/29 08:30:46;;;;;;;;;5.00;5.00;;;;;18.03;100.00;100914.97;3724299;38;21124;-63
2022/05/29 08:33:17;;;;;;;;;5.75;5.75;;;;;18.32;100.00;100907.94;3723977;37;21119;-62
2022/05/29 08:35:49;;;;;;;;;4.00;4.00;;;;;18.16;100.00;100912.09;3723993;38;21208;-68
2022/05/29 08:38:17;;;;;;;;;6.25;5.50;;;;;18.03;100.00;100904.00;3724410;37;21112;-67
2022/05/29 08:41:06;;;;;;;;;4.00;4.00;;;;;18.23;100.00;100904.63;3723420;37;21113;-67
2022/05/29 08:43:39;;;;;;;;;4.00;4.00;;;;;18.50;100.00;100907.94;3723304;37;21295;-66
2022/05/29 08:46:16;;;;;;;;;5.25;4.75;;;;;18.44;100.00;100903.38;3723920;37;21068;-66
2022/05/29 08:48:44;;;;;;;;;5.75;5.00;;;;;18.59;100.00;100906.59;3723815;37;21676;-65
2022/05/29 08:52:04;;;;;;;;;5.00;5.00;;;;;18.69;100.00;100915.16;3724189;38;21012;-68
2022/05/29 08:55:02;;;;;;;;;7.00;6.00;;;;;18.98;100.00;100904.47;3724079;38;21168;-70
2022/05/29 08:58:14;;;;;;;;;7.50;7.25;;;;;19.06;100.00;100904.16;3726617;37;21082;-69
2022/05/29 09:01:18;;;;;;;;;8.75;6.50;;;;;19.26;100.00;100901.94;3732036;38;21111;-67
2022/05/29 09:04:02;;;;;;;;;5.25;5.25;;;;;19.44;100.00;100898.31;3723428;37;21000;-65
2022/05/29 09:06:35;;;;;;;;;5.00;5.00;;;;;19.66;100.00;100890.44;3723147;38;21281;-66
2022/05/29 09:09:17;;;;;;;;;5.50;5.50;;;;;19.66;100.00;100885.78;3722996;37;21071;-66
2022/05/29 09:11:56;;;;;;;;;6.75;6.75;;;;;19.56;100.00;100888.25;3723791;37;20909;-63
2022/05/29 09:14:45;;;;;;;;;6.75;6.50;;;;;19.75;100.00;100878.88;3723743;37;21032;-63
2022/05/29 09:17:21;;;;;;;;;6.00;6.00;;;;;19.71;100.00;100874.09;3723615;37;21234;-63
2022/05/29 09:19:55;;;;;;;;;7.00;6.75;;;;;19.83;100.00;100872.16;3723721;38;21028;-63
2022/05/29 09:22:44;;;;;;;;;6.25;4.50;;;;;19.70;100.00;100869.66;3723922;38;21143;-65
2022/05/29 09:25:33;;;;;;;;;6.50;5.75;;;;;19.88;100.00;100868.72;3723388;37;21091;-66
2022/05/29 09:28:24;;;;;;;;;5.75;5.75;;;;;19.93;100.00;100864.19;3723662;38;21250;-63
2022/05/29 09:31:10;;;;;;;;;8.75;8.25;;;;;20.10;100.00;100873.41;3723834;38;21168;-69
2022/05/29 09:33:38;;;;;;;;;11.50;11.50;;;;;20.07;100.00;100865.62;3723919;38;21095;-68
2022/05/29 09:36:54;;;;;;;;;8.25;7.50;;;;;20.22;100.00;100867.06;3724036;38;21018;-66
2022/05/29 09:39:52;;;;;;;;;8.75;7.50;;;;;20.36;100.00;100869.31;3723693;38;20983;-69
2022/05/29 09:42:31;;;;;;;;;6.50;6.50;;;;;19.76;100.00;100872.28;3723851;37;20976;-67
2022/05/29 09:45:35;;;;;;;;;5.75;5.25;;;;;19.89;100.00;100876.72;3723762;38;21180;-66
2022/05/29 09:51:30;;;;;;;;;6.00;6.00;;;;;19.91;100.00;100874.56;3723846;38;21029;-67
2022/05/29 09:54:01;;;;;;;;;5.50;5.50;;;;;20.24;100.00;100874.00;3723666;37;21017;-70
2022/05/29 09:56:31;;;;;;;;;6.25;6.25;;;;;20.59;100.00;100884.13;3723960;38;21207;-68
2022/05/29 09:59:21;;;;;;;;;11.00;11.00;;;;;20.71;100.00;100882.22;3724123;38;21013;-69
2022/05/29 10:02:00;;;;;;;;;9.00;8.50;;;;;20.86;100.00;100881.66;3723469;37;21109;-69
2022/05/29 10:04:37;;;;;;;;;4.50;4.25;;;;;20.97;100.00;100883.56;3723938;38;21118;-68
2022/05/29 10:07:41;;;;;;;;;7.50;7.50;;;;;20.92;100.00;100883.44;3723962;37;20921;-66
2022/05/29 10:10:30;;;;;;;;;8.75;8.75;;;;;20.70;100.00;100883.28;3723047;37;21102;-69
2022/05/29 10:12:59;;;;;;;;;8.00;7.75;;;;;20.19;100.00;100867.53;3724041;38;20913;-67
2022/05/29 10:15:41;;;;;;;;;7.75;7.75;;;;;20.20;100.00;100872.81;3723918;37;20940;-66
2022/05/29 10:18:39;;;;;;;;;6.75;6.75;;;;;20.86;100.00;100878.91;3722931;38;20888;-70
2022/05/29 10:21:22;;;;;;;;;7.25;7.25;;;;;21.04;100.00;100876.81;3723934;37;20962;-65
2022/05/29 10:23:58;;;;;;;;;8.25;8.25;;;;;21.04;100.00;100878.75;3723368;38;21149;-67
2022/05/29 10:26:33;;;;;;;;;8.00;8.00;;;;;21.16;100.00;100876.78;3723571;37;20881;-67
2022/05/29 10:29:15;;;;;;;;;6.25;6.25;;;;;21.05;100.00;100872.16;3724280;38;20872;-67
2022/05/29 10:31:48;;;;;;;;;9.50;8.75;;;;;20.86;100.00;100873.41;3724289;37;20861;-68
2022/05/29 10:34:29;;;;;;;;;7.00;6.50;;;;;20.41;100.00;100872.19;3729814;37;20922;-71
2022/05/29 10:37:01;;;;;;;;;6.00;6.00;;;;;20.35;100.00;100859.38;3733273;38;20869;-68
2022/05/29 10:39:36;;;;;;;;;5.50;5.50;;;;;20.48;100.00;100858.31;3724335;37;20796;-67
2022/05/29 10:42:05;;;;;;;;;6.00;5.50;;;;;20.69;100.00;100854.94;3723633;37;20862;-67
2022/05/29 10:44:42;;;;;;;;;4.75;4.75;;;;;20.89;100.00;100857.25;3723672;38;21056;-66
2022/05/29 10:47:41;;;;;;;;;6.25;6.25;;;;;21.22;100.00;100853.81;3724836;37;20946;-68
2022/05/29 10:50:17;;;;;;;;;6.00;6.00;;;;;21.08;100.00;100850.50;3723014;37;21047;-67
2022/05/29 10:53:23;;;;;;;;;5.00;5.00;;;;;21.21;100.00;100846.63;3723713;37;20844;-68
2022/05/29 10:56:30;;;;;;;;;5.25;5.25;;;;;21.22;100.00;100850.22;3723676;37;20948;-68
2022/05/29 10:59:29;;;;;;;;;6.00;6.00;;;;;21.41;100.00;100857.16;3723944;37;20966;-65
2022/05/29 11:05:30;;;;;;;;;5.00;5.00;;;;;21.50;100.00;100865.84;3723409;37;20950;-68
2022/05/29 11:08:38;;;;;;;;;4.75;4.75;;;;;21.97;98.58;100866.38;3723383;38;20836;-68
2022/05/29 11:11:45;;;;;;;;;8.50;8.50;;;;;22.14;98.46;100861.72;3723138;37;20917;-68
2022/05/29 11:15:09;;;;;;;;;10.00;9.25;;;;;22.23;96.16;100865.72;3723460;37;20785;-70
2022/05/29 11:18:20;;;;;;;;;7.00;7.00;;;;;22.36;96.39;100847.94;3723910;37;20870;-69
2022/05/29 11:21:29;;;;;;;;;6.00;6.00;;;;;22.62;94.93;100847.22;3723907;38;21005;-68
2022/05/29 11:24:31;;;;;;;;;4.75;4.75;;;;;22.70;93.06;100832.97;3723763;38;20784;-68
2022/05/29 11:27:38;;;;;;;;;7.00;7.00;;;;;22.60;92.31;100830.09;3723826;38;20791;-68
2022/05/29 11:30:51;;;;;;;;;6.25;6.25;;;;;22.57;91.44;100833.34;3723932;38;20865;-66
2022/05/29 11:34:03;;;;;;;;;4.50;4.00;;;;;22.58;90.69;100826.75;3723732;38;20731;-68
2022/05/29 11:37:10;;;;;;;;;5.25;5.25;;;;;22.40;91.99;100827.88;3723810;38;20785;-67
2022/05/29 11:39:46;;;;;;;;;6.00;6.00;;;;;22.30;92.44;100824.19;3723859;37;20949;-67
2022/05/29 11:43:07;;;;;;;;;4.25;4.25;;;;;22.35;89.50;100815.97;3724058;38;20965;-68
2022/05/29 11:52:06;;;;;;;;;9.50;8.00;;;;;22.13;90.32;100814.03;3723165;38;20874;-71
2022/05/29 11:54:59;;;;;;;;;9.50;9.50;;;;;22.12;91.78;100809.59;3723256;38;20888;-70
2022/05/29 11:58:01;;;;;;;;;5.00;5.00;;;;;22.34;90.55;100812.38;3723729;37;20943;-70
2022/05/29 12:01:07;;;;;;;;;4.75;4.75;;;;;22.89;88.73;100810.56;3723776;38;20863;-69
2022/05/29 12:04:05;;;;;;;;;5.75;5.75;;;;;22.93;87.63;100806.19;3723571;37;20833;-69
2022/05/29 12:06:40;;;;;;;;;9.25;9.25;;;;;22.84;86.28;100808.62;3723322;37;20975;-70
2022/05/29 12:09:19;;;;;;;;;4.00;4.00;;;;;22.68;87.83;100815.00;3723981;37;20665;-69
2022/05/29 12:12:16;;;;;;;;;5.50;4.50;;;;;22.57;87.67;100791.12;3724862;38;20780;-72
2022/05/29 12:15:20;;;;;;;;;6.75;6.75;;;;;23.00;87.17;100804.91;3733994;38;20728;-68
2022/05/29 12:17:59;;;;;;;;;5.00;5.00;;;;;22.99;84.66;100813.44;3724388;38;20741;-70
2022/05/29 12:20:53;;;;;;;;;4.50;4.50;;;;;22.97;85.57;100827.50;3724311;38;20810;-70
2022/05/29 12:23:35;;;;;;;;;5.50;5.50;;;;;22.91;85.22;100822.19;3723964;37;20766;-67
2022/05/29 12:26:10;;;;;;;;;5.25;5.25;;;;;22.83;83.71;100819.91;3722938;38;21016;-69
2022/05/29 12:29:09;;;;;;;;;5.50;4.75;;;;;22.81;84.65;100817.41;3723205;38;20743;-71
2022/05/29 12:32:01;;;;;;;;;4.75;4.75;;;;;23.10;84.84;100821.59;3723616;38;20733;-67
2022/05/29 12:34:56;;;;;;;;;4.75;4.75;;;;;23.52;81.84;100811.75;3723422;38;20456;-63
2022/05/29 12:38:04;;;;;;;;;4.25;4.25;;;;;23.66;80.36;100794.50;3722995;37;20596;-67
2022/05/29 12:41:31;;;;;;;;;3.50;3.50;;;;;23.83;79.67;100810.94;3723799;38;20682;-67
2022/05/29 12:44:23;;;;;;;;;4.75;4.75;;;;;23.92;79.19;100812.09;3723087;37;20630;-67
2022/05/29 12:47:27;;;;;;;;;6.00;5.25;;;;;23.86;79.99;100813.16;3723142;37;20954;-68
2022/05/29 12:50:15;;;;;;;;;4.75;4.75;;;;;23.94;79.70;100798.00;3723715;37;20812;-66